sensor_id;sensor_type;location;lat;lon;timestamp;P1;durP1;ratioP1;P2;durP2;ratioP2
30934;SDS011;51033;42.648;23.292;2023-09-12T00:02:16;4.80;;;3.10;;
30934;SDS011;51033;42.648;23.292;2023-09-12T00:04:42;4.78;;;3.47;;
30934;SDS011;51033;42.648;23.292;2023-09-12T00:07:07;6.55;;;3.03;;
30934;SDS011;51033;42.648;23.292;2023-09-12T00:09:32;5.68;;;3.20;;
30934;SDS011;51033;42.648;23.292;2023-09-12T00:11:58;7.18;;;3.17;;
30934;SDS011;51033;42.648;23.292;2023-09-12T00:14:23;5.15;;;2.75;;
30934;SDS011;51033;42.648;23.292;2023-09-12T00:16:48;7.80;;;3.15;;
30934;SDS011;51033;42.648;23.292;2023-09-12T00:19:16;5.68;;;2.97;;
30934;SDS011;51033;42.648;23.292;2023-09-12T00:21:41;4.20;;;2.30;;
30934;SDS011;51033;42.648;23.292;2023-09-12T00:24:07;6.30;;;2.67;;
30934;SDS011;51033;42.648;23.292;2023-09-12T00:26:33;3.63;;;3.03;;
30934;SDS011;51033;42.648;23.292;2023-09-12T00:28:58;7.95;;;2.65;;
30934;SDS011;51033;42.648;23.292;2023-09-12T00:31:24;4.40;;;2.92;;
30934;SDS011;51033;42.648;23.292;2023-09-12T00:33:49;4.90;;;2.47;;
30934;SDS011;51033;42.648;23.292;2023-09-12T00:36:16;4.13;;;2.50;;
30934;SDS011;51033;42.648;23.292;2023-09-12T00:38:41;7.43;;;3.00;;
30934;SDS011;51033;42.648;23.292;2023-09-12T00:41:06;5.10;;;2.83;;
30934;SDS011;51033;42.648;23.292;2023-09-12T00:43:32;3.97;;;2.92;;
30934;SDS011;51033;42.648;23.292;2023-09-12T00:45:57;5.25;;;3.40;;
30934;SDS011;51033;42.648;23.292;2023-09-12T00:48:23;4.28;;;2.95;;
30934;SDS011;51033;42.648;23.292;2023-09-12T00:50:49;6.38;;;2.50;;
30934;SDS011;51033;42.648;23.292;2023-09-12T00:53:15;5.35;;;2.85;;
30934;SDS011;51033;42.648;23.292;2023-09-12T00:55:42;7.35;;;3.47;;
30934;SDS011;51033;42.648;23.292;2023-09-12T00:58:13;4.35;;;2.90;;
30934;SDS011;51033;42.648;23.292;2023-09-12T01:00:40;5.65;;;3.53;;
30934;SDS011;51033;42.648;23.292;2023-09-12T01:03:06;3.60;;;2.50;;
30934;SDS011;51033;42.648;23.292;2023-09-12T01:05:32;7.38;;;2.90;;
30934;SDS011;51033;42.648;23.292;2023-09-12T01:07:58;6.35;;;3.80;;
30934;SDS011;51033;42.648;23.292;2023-09-12T01:10:25;6.18;;;3.30;;
30934;SDS011;51033;42.648;23.292;2023-09-12T01:12:50;17.05;;;3.25;;
30934;SDS011;51033;42.648;23.292;2023-09-12T01:15:17;5.47;;;3.08;;
30934;SDS011;51033;42.648;23.292;2023-09-12T01:17:43;5.68;;;3.08;;
30934;SDS011;51033;42.648;23.292;2023-09-12T01:20:46;8.90;;;2.80;;
30934;SDS011;51033;42.648;23.292;2023-09-12T01:26:41;4.93;;;2.78;;
30934;SDS011;51033;42.648;23.292;2023-09-12T01:29:08;3.65;;;2.75;;
30934;SDS011;51033;42.648;23.292;2023-09-12T01:31:36;11.02;;;3.08;;
30934;SDS011;51033;42.648;23.292;2023-09-12T01:34:08;5.45;;;2.65;;
30934;SDS011;51033;42.648;23.292;2023-09-12T01:39:02;10.40;;;2.65;;
30934;SDS011;51033;42.648;23.292;2023-09-12T01:41:28;3.95;;;2.60;;
30934;SDS011;51033;42.648;23.292;2023-09-12T01:43:57;5.75;;;2.90;;
30934;SDS011;51033;42.648;23.292;2023-09-12T01:46:24;3.97;;;2.88;;
30934;SDS011;51033;42.648;23.292;2023-09-12T01:48:51;5.07;;;3.72;;
30934;SDS011;51033;42.648;23.292;2023-09-12T01:51:19;4.72;;;2.78;;
30934;SDS011;51033;42.648;23.292;2023-09-12T01:53:46;5.05;;;3.25;;
30934;SDS011;51033;42.648;23.292;2023-09-12T01:56:12;5.75;;;3.17;;
30934;SDS011;51033;42.648;23.292;2023-09-12T01:58:38;8.20;;;3.53;;
30934;SDS011;51033;42.648;23.292;2023-09-12T02:01:04;5.03;;;3.47;;
30934;SDS011;51033;42.648;23.292;2023-09-12T02:03:30;5.13;;;3.00;;
30934;SDS011;51033;42.648;23.292;2023-09-12T02:05:55;4.53;;;3.25;;
30934;SDS011;51033;42.648;23.292;2023-09-12T02:08:21;4.18;;;2.60;;
30934;SDS011;51033;42.648;23.292;2023-09-12T02:10:47;7.18;;;2.72;;
30934;SDS011;51033;42.648;23.292;2023-09-12T02:13:12;4.60;;;2.60;;
30934;SDS011;51033;42.648;23.292;2023-09-12T02:15:38;3.72;;;3.03;;
30934;SDS011;51033;42.648;23.292;2023-09-12T02:18:03;4.68;;;3.47;;
30934;SDS011;51033;42.648;23.292;2023-09-12T02:20:29;3.92;;;2.83;;
30934;SDS011;51033;42.648;23.292;2023-09-12T02:22:54;6.25;;;2.75;;
30934;SDS011;51033;42.648;23.292;2023-09-12T02:25:20;7.00;;;2.95;;
30934;SDS011;51033;42.648;23.292;2023-09-12T02:27:45;4.50;;;2.83;;
30934;SDS011;51033;42.648;23.292;2023-09-12T02:30:10;4.78;;;3.15;;
30934;SDS011;51033;42.648;23.292;2023-09-12T02:32:36;4.43;;;2.47;;
30934;SDS011;51033;42.648;23.292;2023-09-12T02:35:01;3.33;;;3.03;;
30934;SDS011;51033;42.648;23.292;2023-09-12T02:37:27;5.22;;;2.75;;
30934;SDS011;51033;42.648;23.292;2023-09-12T02:39:53;4.65;;;2.90;;
30934;SDS011;51033;42.648;23.292;2023-09-12T02:42:19;3.72;;;2.33;;
30934;SDS011;51033;42.648;23.292;2023-09-12T02:44:44;3.47;;;2.60;;
30934;SDS011;51033;42.648;23.292;2023-09-12T02:47:09;4.53;;;2.90;;
30934;SDS011;51033;42.648;23.292;2023-09-12T02:49:35;4.43;;;2.88;;
30934;SDS011;51033;42.648;23.292;2023-09-12T02:52:00;6.50;;;3.00;;
30934;SDS011;51033;42.648;23.292;2023-09-12T02:54:26;6.13;;;2.67;;
30934;SDS011;51033;42.648;23.292;2023-09-12T02:56:51;5.85;;;2.42;;
30934;SDS011;51033;42.648;23.292;2023-09-12T02:59:17;5.97;;;3.30;;
30934;SDS011;51033;42.648;23.292;2023-09-12T03:01:42;4.97;;;2.47;;
30934;SDS011;51033;42.648;23.292;2023-09-12T03:04:08;4.75;;;2.65;;
30934;SDS011;51033;42.648;23.292;2023-09-12T03:06:33;6.03;;;3.15;;
30934;SDS011;51033;42.648;23.292;2023-09-12T03:08:58;4.72;;;3.17;;
30934;SDS011;51033;42.648;23.292;2023-09-12T03:11:27;6.05;;;2.80;;
30934;SDS011;51033;42.648;23.292;2023-09-12T03:13:53;6.65;;;3.40;;
30934;SDS011;51033;42.648;23.292;2023-09-12T03:16:18;5.13;;;3.20;;
30934;SDS011;51033;42.648;23.292;2023-09-12T03:18:43;6.57;;;2.88;;
30934;SDS011;51033;42.648;23.292;2023-09-12T03:21:09;3.38;;;2.90;;
30934;SDS011;51033;42.648;23.292;2023-09-12T03:23:34;4.38;;;2.40;;
30934;SDS011;51033;42.648;23.292;2023-09-12T03:26:03;5.43;;;3.08;;
30934;SDS011;51033;42.648;23.292;2023-09-12T03:28:29;5.70;;;2.88;;
30934;SDS011;51033;42.648;23.292;2023-09-12T03:31:08;5.20;;;2.88;;
30934;SDS011;51033;42.648;23.292;2023-09-12T03:33:39;3.30;;;2.85;;
30934;SDS011;51033;42.648;23.292;2023-09-12T03:36:05;4.32;;;3.38;;
30934;SDS011;51033;42.648;23.292;2023-09-12T03:38:31;5.38;;;2.85;;
30934;SDS011;51033;42.648;23.292;2023-09-12T03:40:57;4.57;;;2.65;;
30934;SDS011;51033;42.648;23.292;2023-09-12T03:43:22;8.88;;;2.88;;
30934;SDS011;51033;42.648;23.292;2023-09-12T03:45:48;3.10;;;2.78;;
30934;SDS011;51033;42.648;23.292;2023-09-12T03:48:14;6.60;;;3.38;;
30934;SDS011;51033;42.648;23.292;2023-09-12T03:50:39;4.60;;;2.70;;
30934;SDS011;51033;42.648;23.292;2023-09-12T03:53:05;5.40;;;3.20;;
30934;SDS011;51033;42.648;23.292;2023-09-12T03:55:30;3.90;;;3.10;;
30934;SDS011;51033;42.648;23.292;2023-09-12T03:57:55;3.65;;;2.53;;
30934;SDS011;51033;42.648;23.292;2023-09-12T04:00:21;4.63;;;3.03;;
30934;SDS011;51033;42.648;23.292;2023-09-12T04:02:46;4.60;;;3.03;;
30934;SDS011;51033;42.648;23.292;2023-09-12T04:05:12;3.55;;;2.65;;
30934;SDS011;51033;42.648;23.292;2023-09-12T04:07:37;5.85;;;3.35;;
30934;SDS011;51033;42.648;23.292;2023-09-12T04:10:03;7.50;;;3.38;;
30934;SDS011;51033;42.648;23.292;2023-09-12T04:12:29;6.85;;;3.03;;
30934;SDS011;51033;42.648;23.292;2023-09-12T04:14:54;16.10;;;4.18;;
30934;SDS011;51033;42.648;23.292;2023-09-12T04:17:22;5.88;;;3.40;;
30934;SDS011;51033;42.648;23.292;2023-09-12T04:19:47;5.47;;;3.20;;
30934;SDS011;51033;42.648;23.292;2023-09-12T04:22:13;5.75;;;3.72;;
30934;SDS011;51033;42.648;23.292;2023-09-12T04:24:38;11.48;;;7.00;;
30934;SDS011;51033;42.648;23.292;2023-09-12T04:27:04;10.00;;;6.55;;
30934;SDS011;51033;42.648;23.292;2023-09-12T04:29:31;17.95;;;8.40;;
30934;SDS011;51033;42.648;23.292;2023-09-12T04:31:59;26.75;;;11.85;;
30934;SDS011;51033;42.648;23.292;2023-09-12T04:34:25;38.58;;;13.65;;
30934;SDS011;51033;42.648;23.292;2023-09-12T04:36:50;20.80;;;11.30;;
30934;SDS011;51033;42.648;23.292;2023-09-12T04:39:16;17.35;;;9.88;;
30934;SDS011;51033;42.648;23.292;2023-09-12T04:41:42;13.60;;;6.72;;
30934;SDS011;51033;42.648;23.292;2023-09-12T04:44:07;13.88;;;5.50;;
30934;SDS011;51033;42.648;23.292;2023-09-12T04:46:33;17.55;;;5.65;;
30934;SDS011;51033;42.648;23.292;2023-09-12T04:48:58;8.85;;;5.30;;
30934;SDS011;51033;42.648;23.292;2023-09-12T04:51:24;8.70;;;5.05;;
30934;SDS011;51033;42.648;23.292;2023-09-12T04:53:49;9.60;;;4.20;;
30934;SDS011;51033;42.648;23.292;2023-09-12T04:56:16;8.80;;;4.88;;
30934;SDS011;51033;42.648;23.292;2023-09-12T04:58:42;12.43;;;5.63;;
30934;SDS011;51033;42.648;23.292;2023-09-12T05:01:07;7.53;;;5.22;;
30934;SDS011;51033;42.648;23.292;2023-09-12T05:03:34;10.68;;;5.00;;
30934;SDS011;51033;42.648;23.292;2023-09-12T05:06:00;8.48;;;5.40;;
30934;SDS011;51033;42.648;23.292;2023-09-12T05:08:25;9.50;;;5.30;;
30934;SDS011;51033;42.648;23.292;2023-09-12T05:10:51;6.53;;;4.90;;
30934;SDS011;51033;42.648;23.292;2023-09-12T05:13:16;14.43;;;5.38;;
30934;SDS011;51033;42.648;23.292;2023-09-12T05:15:42;18.55;;;6.50;;
30934;SDS011;51033;42.648;23.292;2023-09-12T05:18:07;19.85;;;6.57;;
30934;SDS011;51033;42.648;23.292;2023-09-12T05:20:33;31.52;;;6.63;;
30934;SDS011;51033;42.648;23.292;2023-09-12T05:22:59;15.90;;;5.93;;
30934;SDS011;51033;42.648;23.292;2023-09-12T05:25:24;13.15;;;6.03;;
30934;SDS011;51033;42.648;23.292;2023-09-12T05:27:51;11.93;;;5.53;;
30934;SDS011;51033;42.648;23.292;2023-09-12T05:30:17;12.57;;;5.20;;
30934;SDS011;51033;42.648;23.292;2023-09-12T05:32:42;11.88;;;5.68;;
30934;SDS011;51033;42.648;23.292;2023-09-12T05:35:08;13.02;;;6.18;;
30934;SDS011;51033;42.648;23.292;2023-09-12T05:37:33;9.40;;;5.43;;
30934;SDS011;51033;42.648;23.292;2023-09-12T05:39:59;16.35;;;6.05;;
30934;SDS011;51033;42.648;23.292;2023-09-12T05:42:24;11.77;;;6.40;;
30934;SDS011;51033;42.648;23.292;2023-09-12T05:44:50;10.60;;;5.45;;
30934;SDS011;51033;42.648;23.292;2023-09-12T05:47:18;17.35;;;6.57;;
30934;SDS011;51033;42.648;23.292;2023-09-12T05:49:44;15.43;;;6.93;;
30934;SDS011;51033;42.648;23.292;2023-09-12T05:52:09;16.65;;;6.75;;
30934;SDS011;51033;42.648;23.292;2023-09-12T05:54:36;14.40;;;6.20;;
30934;SDS011;51033;42.648;23.292;2023-09-12T05:57:01;11.65;;;6.90;;
30934;SDS011;51033;42.648;23.292;2023-09-12T05:59:27;15.35;;;6.47;;
30934;SDS011;51033;42.648;23.292;2023-09-12T06:01:53;11.93;;;7.55;;
30934;SDS011;51033;42.648;23.292;2023-09-12T06:04:18;11.57;;;7.00;;
30934;SDS011;51033;42.648;23.292;2023-09-12T06:06:45;25.90;;;7.90;;
30934;SDS011;51033;42.648;23.292;2023-09-12T06:09:11;11.45;;;6.68;;
30934;SDS011;51033;42.648;23.292;2023-09-12T06:11:36;19.35;;;7.43;;
30934;SDS011;51033;42.648;23.292;2023-09-12T06:14:01;16.05;;;6.95;;
30934;SDS011;51033;42.648;23.292;2023-09-12T06:16:27;10.55;;;6.75;;
30934;SDS011;51033;42.648;23.292;2023-09-12T06:18:52;10.43;;;6.45;;
30934;SDS011;51033;42.648;23.292;2023-09-12T06:21:18;15.35;;;8.07;;
30934;SDS011;51033;42.648;23.292;2023-09-12T06:23:46;10.50;;;6.50;;
30934;SDS011;51033;42.648;23.292;2023-09-12T06:26:12;12.45;;;7.05;;
30934;SDS011;51033;42.648;23.292;2023-09-12T06:28:37;17.20;;;7.95;;
30934;SDS011;51033;42.648;23.292;2023-09-12T06:31:03;14.57;;;7.93;;
30934;SDS011;51033;42.648;23.292;2023-09-12T06:33:29;16.13;;;7.38;;
30934;SDS011;51033;42.648;23.292;2023-09-12T06:35:54;12.10;;;7.78;;
30934;SDS011;51033;42.648;23.292;2023-09-12T06:38:20;11.57;;;6.75;;
30934;SDS011;51033;42.648;23.292;2023-09-12T06:40:48;13.50;;;7.57;;
30934;SDS011;51033;42.648;23.292;2023-09-12T06:43:14;18.50;;;7.50;;
30934;SDS011;51033;42.648;23.292;2023-09-12T06:45:42;14.15;;;7.78;;
30934;SDS011;51033;42.648;23.292;2023-09-12T06:48:08;15.32;;;7.90;;
30934;SDS011;51033;42.648;23.292;2023-09-12T06:50:33;10.45;;;7.20;;
30934;SDS011;51033;42.648;23.292;2023-09-12T06:52:59;15.38;;;7.53;;
30934;SDS011;51033;42.648;23.292;2023-09-12T06:55:24;18.05;;;7.90;;
30934;SDS011;51033;42.648;23.292;2023-09-12T06:57:50;20.92;;;9.07;;
30934;SDS011;51033;42.648;23.292;2023-09-12T07:00:15;22.10;;;9.02;;
30934;SDS011;51033;42.648;23.292;2023-09-12T07:02:41;15.50;;;9.77;;
30934;SDS011;51033;42.648;23.292;2023-09-12T07:05:07;15.65;;;8.60;;
30934;SDS011;51033;42.648;23.292;2023-09-12T07:07:32;19.25;;;9.57;;
30934;SDS011;51033;42.648;23.292;2023-09-12T07:09:58;15.13;;;8.00;;
30934;SDS011;51033;42.648;23.292;2023-09-12T07:12:24;16.98;;;8.65;;
30934;SDS011;51033;42.648;23.292;2023-09-12T07:14:50;15.45;;;7.78;;
30934;SDS011;51033;42.648;23.292;2023-09-12T07:17:17;17.05;;;8.65;;
30934;SDS011;51033;42.648;23.292;2023-09-12T07:19:42;14.98;;;8.25;;
30934;SDS011;51033;42.648;23.292;2023-09-12T07:22:08;18.45;;;9.32;;
30934;SDS011;51033;42.648;23.292;2023-09-12T07:24:33;17.20;;;8.23;;
30934;SDS011;51033;42.648;23.292;2023-09-12T07:26:59;17.27;;;9.25;;
30934;SDS011;51033;42.648;23.292;2023-09-12T07:29:24;20.80;;;8.98;;
30934;SDS011;51033;42.648;23.292;2023-09-12T07:31:53;21.55;;;8.43;;
30934;SDS011;51033;42.648;23.292;2023-09-12T07:34:19;14.88;;;8.57;;
30934;SDS011;51033;42.648;23.292;2023-09-12T07:36:45;17.45;;;8.32;;
30934;SDS011;51033;42.648;23.292;2023-09-12T07:39:10;15.68;;;8.15;;
30934;SDS011;51033;42.648;23.292;2023-09-12T07:41:36;17.90;;;8.25;;
30934;SDS011;51033;42.648;23.292;2023-09-12T07:44:01;14.32;;;6.65;;
30934;SDS011;51033;42.648;23.292;2023-09-12T07:46:29;17.45;;;7.85;;
30934;SDS011;51033;42.648;23.292;2023-09-12T07:48:55;18.35;;;8.18;;
30934;SDS011;51033;42.648;23.292;2023-09-12T07:51:20;12.45;;;7.65;;
30934;SDS011;51033;42.648;23.292;2023-09-12T07:53:47;15.82;;;8.10;;
30934;SDS011;51033;42.648;23.292;2023-09-12T07:56:13;13.38;;;7.95;;
30934;SDS011;51033;42.648;23.292;2023-09-12T07:58:38;14.13;;;7.20;;
30934;SDS011;51033;42.648;23.292;2023-09-12T08:01:07;15.85;;;7.43;;
30934;SDS011;51033;42.648;23.292;2023-09-12T08:03:34;20.42;;;7.88;;
30934;SDS011;51033;42.648;23.292;2023-09-12T08:06:00;12.60;;;6.68;;
30934;SDS011;51033;42.648;23.292;2023-09-12T08:08:25;10.75;;;6.05;;
30934;SDS011;51033;42.648;23.292;2023-09-12T08:10:51;10.75;;;6.28;;
30934;SDS011;51033;42.648;23.292;2023-09-12T08:13:16;11.65;;;5.68;;
30934;SDS011;51033;42.648;23.292;2023-09-12T08:15:41;11.65;;;6.25;;
30934;SDS011;51033;42.648;23.292;2023-09-12T08:18:07;14.25;;;5.75;;
30934;SDS011;51033;42.648;23.292;2023-09-12T08:20:32;14.90;;;6.82;;
30934;SDS011;51033;42.648;23.292;2023-09-12T08:22:58;14.25;;;6.90;;
30934;SDS011;51033;42.648;23.292;2023-09-12T08:25:23;13.05;;;6.20;;
30934;SDS011;51033;42.648;23.292;2023-09-12T08:27:49;13.65;;;7.30;;
30934;SDS011;51033;42.648;23.292;2023-09-12T08:30:15;14.63;;;6.13;;
30934;SDS011;51033;42.648;23.292;2023-09-12T08:32:41;16.80;;;6.18;;
30934;SDS011;51033;42.648;23.292;2023-09-12T08:35:09;7.03;;;4.65;;
30934;SDS011;51033;42.648;23.292;2023-09-12T08:37:39;11.15;;;5.93;;
30934;SDS011;51033;42.648;23.292;2023-09-12T08:40:05;9.02;;;5.00;;
30934;SDS011;51033;42.648;23.292;2023-09-12T08:42:34;14.70;;;5.13;;
30934;SDS011;51033;42.648;23.292;2023-09-12T08:45:06;12.18;;;4.45;;
30934;SDS011;51033;42.648;23.292;2023-09-12T08:47:38;10.38;;;5.30;;
30934;SDS011;51033;42.648;23.292;2023-09-12T08:50:06;12.13;;;4.45;;
30934;SDS011;51033;42.648;23.292;2023-09-12T08:52:35;8.75;;;5.10;;
30934;SDS011;51033;42.648;23.292;2023-09-12T08:55:00;10.02;;;5.80;;
30934;SDS011;51033;42.648;23.292;2023-09-12T08:57:25;15.27;;;4.65;;
30934;SDS011;51033;42.648;23.292;2023-09-12T08:59:52;8.45;;;3.85;;
30934;SDS011;51033;42.648;23.292;2023-09-12T09:02:18;8.10;;;4.35;;
30934;SDS011;51033;42.648;23.292;2023-09-12T09:04:45;13.63;;;4.68;;
30934;SDS011;51033;42.648;23.292;2023-09-12T09:07:11;9.65;;;3.97;;
30934;SDS011;51033;42.648;23.292;2023-09-12T09:09:38;11.43;;;3.92;;
30934;SDS011;51033;42.648;23.292;2023-09-12T09:12:07;8.05;;;4.55;;
30934;SDS011;51033;42.648;23.292;2023-09-12T09:14:35;7.53;;;4.05;;
30934;SDS011;51033;42.648;23.292;2023-09-12T09:17:01;7.82;;;4.13;;
30934;SDS011;51033;42.648;23.292;2023-09-12T09:19:42;13.63;;;4.85;;
30934;SDS011;51033;42.648;23.292;2023-09-12T09:22:09;15.18;;;6.25;;
30934;SDS011;51033;42.648;23.292;2023-09-12T09:24:35;8.23;;;4.28;;
30934;SDS011;51033;42.648;23.292;2023-09-12T09:27:00;9.63;;;4.03;;
30934;SDS011;51033;42.648;23.292;2023-09-12T09:29:26;11.00;;;4.03;;
30934;SDS011;51033;42.648;23.292;2023-09-12T09:31:58;12.68;;;4.35;;
30934;SDS011;51033;42.648;23.292;2023-09-12T09:34:25;10.20;;;4.28;;
30934;SDS011;51033;42.648;23.292;2023-09-12T09:36:53;10.90;;;4.35;;
30934;SDS011;51033;42.648;23.292;2023-09-12T09:39:21;4.72;;;3.33;;
30934;SDS011;51033;42.648;23.292;2023-09-12T09:41:52;10.45;;;4.05;;
30934;SDS011;51033;42.648;23.292;2023-09-12T09:44:20;7.10;;;3.58;;
30934;SDS011;51033;42.648;23.292;2023-09-12T09:46:50;8.23;;;3.78;;
30934;SDS011;51033;42.648;23.292;2023-09-12T09:49:19;10.90;;;3.97;;
30934;SDS011;51033;42.648;23.292;2023-09-12T09:51:46;10.63;;;3.72;;
30934;SDS011;51033;42.648;23.292;2023-09-12T09:54:12;6.18;;;3.55;;
30934;SDS011;51033;42.648;23.292;2023-09-12T09:56:47;8.73;;;3.55;;
30934;SDS011;51033;42.648;23.292;2023-09-12T09:59:15;5.30;;;3.67;;
30934;SDS011;51033;42.648;23.292;2023-09-12T10:01:43;6.65;;;4.47;;
30934;SDS011;51033;42.648;23.292;2023-09-12T10:04:10;10.48;;;3.28;;
30934;SDS011;51033;42.648;23.292;2023-09-12T10:06:35;8.60;;;3.22;;
30934;SDS011;51033;42.648;23.292;2023-09-12T10:09:02;6.55;;;3.08;;
30934;SDS011;51033;42.648;23.292;2023-09-12T10:11:32;12.60;;;3.83;;
30934;SDS011;51033;42.648;23.292;2023-09-12T10:13:59;5.38;;;2.95;;
30934;SDS011;51033;42.648;23.292;2023-09-12T10:16:31;7.38;;;4.25;;
30934;SDS011;51033;42.648;23.292;2023-09-12T10:24:09;15.93;;;3.92;;
30934;SDS011;51033;42.648;23.292;2023-09-12T10:26:36;7.75;;;3.60;;
30934;SDS011;51033;42.648;23.292;2023-09-12T10:29:04;9.50;;;4.00;;
30934;SDS011;51033;42.648;23.292;2023-09-12T10:31:30;8.48;;;3.38;;
30934;SDS011;51033;42.648;23.292;2023-09-12T10:33:58;7.93;;;4.45;;
30934;SDS011;51033;42.648;23.292;2023-09-12T10:36:25;10.40;;;4.00;;
30934;SDS011;51033;42.648;23.292;2023-09-12T10:38:51;7.57;;;3.95;;
30934;SDS011;51033;42.648;23.292;2023-09-12T10:41:18;7.10;;;3.75;;
30934;SDS011;51033;42.648;23.292;2023-09-12T10:43:46;11.27;;;4.20;;
30934;SDS011;51033;42.648;23.292;2023-09-12T10:46:17;7.88;;;3.08;;
30934;SDS011;51033;42.648;23.292;2023-09-12T10:48:42;10.25;;;3.25;;
30934;SDS011;51033;42.648;23.292;2023-09-12T10:51:08;9.18;;;4.47;;
30934;SDS011;51033;42.648;23.292;2023-09-12T10:53:35;11.77;;;3.42;;
30934;SDS011;51033;42.648;23.292;2023-09-12T11:03:57;5.80;;;3.65;;
30934;SDS011;51033;42.648;23.292;2023-09-12T11:06:28;7.45;;;4.63;;
30934;SDS011;51033;42.648;23.292;2023-09-12T11:11:39;12.52;;;4.18;;
30934;SDS011;51033;42.648;23.292;2023-09-12T11:14:08;6.82;;;3.80;;
30934;SDS011;51033;42.648;23.292;2023-09-12T11:16:34;8.63;;;3.72;;
30934;SDS011;51033;42.648;23.292;2023-09-12T11:19:16;6.18;;;3.65;;
30934;SDS011;51033;42.648;23.292;2023-09-12T11:21:54;8.43;;;3.50;;
30934;SDS011;51033;42.648;23.292;2023-09-12T11:24:21;20.45;;;3.50;;
30934;SDS011;51033;42.648;23.292;2023-09-12T11:26:59;7.40;;;3.47;;
30934;SDS011;51033;42.648;23.292;2023-09-12T11:29:30;8.32;;;3.72;;
30934;SDS011;51033;42.648;23.292;2023-09-12T11:32:05;8.90;;;3.40;;
30934;SDS011;51033;42.648;23.292;2023-09-12T11:34:40;4.43;;;3.20;;
30934;SDS011;51033;42.648;23.292;2023-09-12T11:37:07;8.25;;;4.03;;
30934;SDS011;51033;42.648;23.292;2023-09-12T11:39:35;8.45;;;3.88;;
30934;SDS011;51033;42.648;23.292;2023-09-12T11:42:02;10.52;;;3.63;;
30934;SDS011;51033;42.648;23.292;2023-09-12T11:44:30;7.95;;;3.47;;
30934;SDS011;51033;42.648;23.292;2023-09-12T11:46:56;6.45;;;3.58;;
30934;SDS011;51033;42.648;23.292;2023-09-12T11:49:28;9.32;;;3.88;;
30934;SDS011;51033;42.648;23.292;2023-09-12T11:52:02;6.53;;;3.60;;
30934;SDS011;51033;42.648;23.292;2023-09-12T11:54:29;7.97;;;3.60;;
30934;SDS011;51033;42.648;23.292;2023-09-12T11:56:57;5.25;;;2.80;;
30934;SDS011;51033;42.648;23.292;2023-09-12T11:59:24;11.75;;;3.42;;
30934;SDS011;51033;42.648;23.292;2023-09-12T12:01:53;8.65;;;3.85;;
30934;SDS011;51033;42.648;23.292;2023-09-12T12:04:22;8.85;;;3.42;;
30934;SDS011;51033;42.648;23.292;2023-09-12T12:06:52;11.15;;;4.10;;
30934;SDS011;51033;42.648;23.292;2023-09-12T12:09:18;7.13;;;2.97;;
30934;SDS011;51033;42.648;23.292;2023-09-12T12:11:45;9.77;;;3.33;;
30934;SDS011;51033;42.648;23.292;2023-09-12T12:14:12;7.65;;;3.15;;
30934;SDS011;51033;42.648;23.292;2023-09-12T12:16:44;7.10;;;3.30;;
30934;SDS011;51033;42.648;23.292;2023-09-12T12:19:12;7.60;;;3.55;;
30934;SDS011;51033;42.648;23.292;2023-09-12T12:21:41;8.20;;;3.38;;
30934;SDS011;51033;42.648;23.292;2023-09-12T12:24:09;9.93;;;3.90;;
30934;SDS011;51033;42.648;23.292;2023-09-12T12:26:41;9.43;;;4.22;;
30934;SDS011;51033;42.648;23.292;2023-09-12T12:29:10;12.18;;;4.55;;
30934;SDS011;51033;42.648;23.292;2023-09-12T12:31:36;10.98;;;3.20;;
30934;SDS011;51033;42.648;23.292;2023-09-12T12:34:02;9.93;;;3.45;;
30934;SDS011;51033;42.648;23.292;2023-09-12T12:36:28;8.30;;;3.75;;
30934;SDS011;51033;42.648;23.292;2023-09-12T12:38:54;6.63;;;3.50;;
30934;SDS011;51033;42.648;23.292;2023-09-12T12:41:24;13.60;;;3.90;;
30934;SDS011;51033;42.648;23.292;2023-09-12T12:43:51;5.90;;;3.38;;
30934;SDS011;51033;42.648;23.292;2023-09-12T12:46:17;8.80;;;2.90;;
30934;SDS011;51033;42.648;23.292;2023-09-12T12:48:44;4.55;;;2.65;;
30934;SDS011;51033;42.648;23.292;2023-09-12T12:51:15;5.10;;;3.28;;
30934;SDS011;51033;42.648;23.292;2023-09-12T12:53:50;6.53;;;3.30;;
30934;SDS011;51033;42.648;23.292;2023-09-12T12:56:18;6.85;;;3.15;;
30934;SDS011;51033;42.648;23.292;2023-09-12T12:58:53;8.32;;;3.83;;
30934;SDS011;51033;42.648;23.292;2023-09-12T13:01:20;8.32;;;3.70;;
30934;SDS011;51033;42.648;23.292;2023-09-12T13:03:46;7.05;;;3.47;;
30934;SDS011;51033;42.648;23.292;2023-09-12T13:06:12;4.80;;;3.17;;
30934;SDS011;51033;42.648;23.292;2023-09-12T13:08:42;8.35;;;3.22;;
30934;SDS011;51033;42.648;23.292;2023-09-12T13:11:08;9.55;;;3.45;;
30934;SDS011;51033;42.648;23.292;2023-09-12T13:13:35;8.23;;;3.28;;
30934;SDS011;51033;42.648;23.292;2023-09-12T13:16:01;3.90;;;2.67;;
30934;SDS011;51033;42.648;23.292;2023-09-12T13:18:29;7.35;;;3.35;;
30934;SDS011;51033;42.648;23.292;2023-09-12T13:20:57;5.32;;;2.95;;
30934;SDS011;51033;42.648;23.292;2023-09-12T13:23:22;7.78;;;3.25;;
30934;SDS011;51033;42.648;23.292;2023-09-12T13:25:49;5.80;;;3.20;;
30934;SDS011;51033;42.648;23.292;2023-09-12T13:28:16;10.20;;;3.08;;
30934;SDS011;51033;42.648;23.292;2023-09-12T13:30:41;7.70;;;3.33;;
30934;SDS011;51033;42.648;23.292;2023-09-12T13:33:06;11.55;;;4.13;;
30934;SDS011;51033;42.648;23.292;2023-09-12T13:35:33;8.38;;;3.25;;
30934;SDS011;51033;42.648;23.292;2023-09-12T13:37:58;199.48;;;15.25;;
30934;SDS011;51033;42.648;23.292;2023-09-12T13:40:24;8.65;;;2.97;;
30934;SDS011;51033;42.648;23.292;2023-09-12T13:42:49;7.90;;;3.17;;
30934;SDS011;51033;42.648;23.292;2023-09-12T13:45:14;5.78;;;2.78;;
30934;SDS011;51033;42.648;23.292;2023-09-12T13:47:40;4.78;;;2.95;;
30934;SDS011;51033;42.648;23.292;2023-09-12T13:50:07;6.15;;;3.05;;
30934;SDS011;51033;42.648;23.292;2023-09-12T13:52:33;6.07;;;3.13;;
30934;SDS011;51033;42.648;23.292;2023-09-12T13:54:58;8.38;;;2.97;;
30934;SDS011;51033;42.648;23.292;2023-09-12T13:57:28;9.50;;;3.60;;
30934;SDS011;51033;42.648;23.292;2023-09-12T13:59:54;7.50;;;3.63;;
30934;SDS011;51033;42.648;23.292;2023-09-12T14:02:19;10.90;;;3.90;;
30934;SDS011;51033;42.648;23.292;2023-09-12T14:04:45;6.05;;;3.25;;
30934;SDS011;51033;42.648;23.292;2023-09-12T14:07:10;5.63;;;3.50;;
30934;SDS011;51033;42.648;23.292;2023-09-12T14:09:36;9.70;;;3.10;;
30934;SDS011;51033;42.648;23.292;2023-09-12T14:12:01;7.05;;;2.95;;
30934;SDS011;51033;42.648;23.292;2023-09-12T14:14:27;7.75;;;3.35;;
30934;SDS011;51033;42.648;23.292;2023-09-12T14:16:52;8.20;;;3.10;;
30934;SDS011;51033;42.648;23.292;2023-09-12T14:19:17;5.50;;;3.17;;
30934;SDS011;51033;42.648;23.292;2023-09-12T14:21:43;5.68;;;3.55;;
30934;SDS011;51033;42.648;23.292;2023-09-12T14:24:09;7.25;;;4.75;;
30934;SDS011;51033;42.648;23.292;2023-09-12T14:26:34;11.82;;;3.53;;
30934;SDS011;51033;42.648;23.292;2023-09-12T14:29:00;5.50;;;3.70;;
30934;SDS011;51033;42.648;23.292;2023-09-12T14:31:25;9.45;;;3.30;;
30934;SDS011;51033;42.648;23.292;2023-09-12T14:33:51;10.55;;;2.75;;
30934;SDS011;51033;42.648;23.292;2023-09-12T14:36:17;7.45;;;2.85;;
30934;SDS011;51033;42.648;23.292;2023-09-12T14:38:43;7.13;;;2.78;;
30934;SDS011;51033;42.648;23.292;2023-09-12T14:41:11;10.68;;;3.47;;
30934;SDS011;51033;42.648;23.292;2023-09-12T14:43:38;7.50;;;2.97;;
30934;SDS011;51033;42.648;23.292;2023-09-12T14:46:03;6.38;;;3.45;;
30934;SDS011;51033;42.648;23.292;2023-09-12T14:48:30;9.30;;;3.50;;